Currently 62°F in Pinon Hills, California, USA
62°F
63°F / 50°F
4 mph E
0.00"
Thursday, December 14, 2017 1:03 PM PST

Pinon Hills, California Climate Summary
Typical November Day

Normal High:    64.6°F (18.1°C)
Normal Low:    44.7°F (7.1°C)
Average:    54.0°F (12.2°C)

Hour    Temperature    Wind Speed    Humidity
12:00 AM    50°F (10°C)    3 mph    42%
1:00 AM    50°F (10°C)    2 mph    43%
2:00 AM    50°F (10°C)    2 mph    44%
3:00 AM    49°F (10°C)    2 mph    44%
4:00 AM    49°F (9°C)    2 mph    45%
5:00 AM    48°F (9°C)    2 mph    46%
6:00 AM    49°F (9°C)    2 mph    46%
7:00 AM    50°F (10°C)    2 mph    45%
8:00 AM    55°F (13°C)    2 mph    40%
9:00 AM    57°F (14°C)    3 mph    37%
10:00 AM    59°F (15°C)    3 mph    34%
11:00 AM    61°F (16°C)    4 mph    32%
12:00 PM    62°F (17°C)    4 mph    30%
1:00 PM    63°F (17°C)    4 mph    29%
2:00 PM    63°F (17°C)    4 mph    29%
3:00 PM    62°F (17°C)    3 mph    30%
4:00 PM    61°F (16°C)    3 mph    32%
5:00 PM    55°F (13°C)    2 mph    38%
6:00 PM    53°F (12°C)    2 mph    41%
7:00 PM    52°F (11°C)    2 mph    41%
8:00 PM    51°F (11°C)    2 mph    43%
9:00 PM    51°F (11°C)    2 mph    42%
10:00 PM    50°F (10°C)    2 mph    43%
11:00 PM    50°F (10°C)    2 mph    43%
 

The Pinon Hills, California weather pages are a service of WeatherCurrents.
Copyright ©Thu Dec 14 13:04:11 PST 2017  WeatherCurrents. All rights reserved. - Submit questions and comments - Privacy Policy